createdAt,value
2023-01-22T00:02:21.411Z,12.90
2023-01-22T00:13:28.257Z,15.30
2023-01-22T00:17:02.204Z,13.90
2023-01-22T00:20:41.767Z,14.00
2023-01-22T00:24:14.219Z,14.50
2023-01-22T00:27:46.276Z,13.80
2023-01-22T00:31:19.300Z,13.10
2023-01-22T00:34:52.191Z,11.80
2023-01-22T00:38:27.538Z,9.90
2023-01-22T00:42:02.230Z,11.80
2023-01-22T00:45:37.359Z,14.10
2023-01-22T00:49:18.266Z,14.80
2023-01-22T00:52:56.280Z,15.10
2023-01-22T00:56:33.365Z,14.60
2023-01-22T01:00:10.211Z,13.30
2023-01-22T01:03:49.230Z,13.80
2023-01-22T01:07:36.328Z,11.70
2023-01-22T01:11:11.117Z,12.90
2023-01-22T01:14:56.215Z,13.90
2023-01-22T01:18:37.364Z,13.70
2023-01-22T01:22:12.603Z,13.10
2023-01-22T01:29:36.228Z,12.70
2023-01-22T01:33:08.217Z,13.40
2023-01-22T01:36:48.715Z,12.60
2023-01-22T01:40:06.386Z,12.30
2023-01-22T01:43:53.268Z,12.20
2023-01-22T01:47:32.334Z,11.80
2023-01-22T01:51:32.252Z,12.30
2023-01-22T01:55:21.307Z,12.90
2023-01-22T01:58:58.278Z,12.30
2023-01-22T02:06:31.911Z,11.90
2023-01-22T02:10:08.264Z,9.50
2023-01-22T02:13:44.302Z,10.90
2023-01-22T02:20:54.304Z,11.50
2023-01-22T02:24:35.308Z,11.20
2023-01-22T02:28:29.321Z,12.40
2023-01-22T02:32:01.288Z,12.00
2023-01-22T02:35:43.319Z,12.60
2023-01-22T02:39:22.708Z,13.60
2023-01-22T02:42:55.350Z,14.50
2023-01-22T02:46:38.443Z,11.10
2023-01-22T02:57:02.269Z,13.90
2023-01-22T03:00:34.461Z,9.30
2023-01-22T03:04:07.330Z,14.80
2023-01-22T03:07:45.388Z,14.70
2023-01-22T03:11:18.344Z,13.80
2023-01-22T03:14:55.157Z,18.10
2023-01-22T03:18:32.389Z,17.90
2023-01-22T03:22:09.466Z,13.60
2023-01-22T03:25:39.421Z,16.60
2023-01-22T03:29:11.372Z,15.70
2023-01-22T03:32:51.493Z,17.70
2023-01-22T03:36:33.415Z,15.10
2023-01-22T03:40:32.328Z,17.40
2023-01-22T03:44:06.442Z,21.40
2023-01-22T03:47:47.465Z,19.70
2023-01-22T03:51:20.413Z,19.60
2023-01-22T03:54:55.364Z,19.50
2023-01-22T03:58:33.381Z,20.20
2023-01-22T04:02:11.451Z,19.00
2023-01-22T04:06:06.308Z,20.90
2023-01-22T04:09:49.376Z,19.50
2023-01-22T04:13:49.781Z,21.20
2023-01-22T04:17:26.808Z,16.40
2023-01-22T04:21:19.546Z,19.40
2023-01-22T04:25:08.433Z,18.90
2023-01-22T04:28:55.429Z,19.00
2023-01-22T04:32:51.472Z,17.50
2023-01-22T04:36:45.410Z,17.80
2023-01-22T04:40:27.458Z,18.80
2023-01-22T04:51:56.423Z,19.90
2023-01-22T04:59:52.489Z,19.90
2023-01-22T05:03:32.483Z,20.80
2023-01-22T05:07:07.458Z,18.60
2023-01-22T05:10:47.480Z,16.30
2023-01-22T05:14:35.608Z,16.90
2023-01-22T05:18:14.533Z,19.40
2023-01-22T05:26:04.515Z,15.30
2023-01-22T05:30:19.665Z,16.40
2023-01-22T05:41:37.452Z,16.40
2023-01-22T05:45:15.511Z,12.00
2023-01-22T05:48:56.478Z,15.30
2023-01-22T05:56:15.266Z,14.50
2023-01-22T06:03:56.548Z,13.60
2023-01-22T06:07:58.520Z,10.40
2023-01-22T06:11:41.125Z,11.10
2023-01-22T06:15:21.515Z,12.60
2023-01-22T06:18:57.484Z,9.70
2023-01-22T06:23:03.762Z,12.10
2023-01-22T06:27:11.088Z,10.40
2023-01-22T06:34:55.919Z,10.90
2023-01-22T06:38:41.469Z,12.00
2023-01-22T06:42:37.898Z,12.50
2023-01-22T06:46:35.587Z,11.80
2023-01-22T06:50:54.105Z,12.90
2023-01-22T15:41:03.598Z,9.50
2023-01-22T16:19:10.902Z,5.60
2023-01-22T16:38:15.934Z,7.20
2023-01-22T16:42:22.452Z,8.90
2023-01-22T16:50:04.894Z,9.00
2023-01-22T16:53:50.013Z,8.70
2023-01-22T16:58:10.828Z,9.00
2023-01-22T17:02:09.646Z,9.40
2023-01-22T17:06:06.886Z,8.50
2023-01-22T17:09:54.912Z,6.40
2023-01-22T17:21:01.587Z,5.30
2023-01-22T17:24:29.246Z,7.50
2023-01-22T17:28:12.895Z,7.50
2023-01-22T17:31:53.022Z,8.10
2023-01-22T17:39:53.907Z,8.10
2023-01-22T17:43:46.160Z,7.90
2023-01-22T17:47:22.998Z,6.60
2023-01-22T17:54:48.952Z,7.20
2023-01-22T17:58:38.022Z,10.00
2023-01-22T18:02:12.502Z,7.10
2023-01-22T18:05:57.175Z,13.20
2023-01-22T18:09:58.023Z,9.20
2023-01-22T18:13:38.021Z,7.50
2023-01-22T18:17:32.969Z,10.70
2023-01-22T18:21:16.000Z,8.40
2023-01-22T18:24:53.024Z,12.40
2023-01-22T18:32:18.655Z,10.40
2023-01-22T18:36:25.829Z,12.60
2023-01-22T18:40:07.492Z,8.40
2023-01-22T18:43:44.928Z,11.30
2023-01-22T18:47:34.801Z,8.70
2023-01-22T18:51:15.644Z,10.90
2023-01-22T18:54:57.813Z,8.50
2023-01-22T18:58:46.081Z,11.80
2023-01-22T19:02:43.065Z,13.90
2023-01-22T19:06:17.789Z,12.90
2023-01-22T19:17:35.356Z,14.80
2023-01-22T19:21:18.785Z,12.50
2023-01-22T19:24:57.974Z,15.70
2023-01-22T19:28:53.999Z,12.00
2023-01-22T19:32:29.027Z,12.60
2023-01-22T19:39:37.481Z,11.00
2023-01-22T19:43:15.204Z,14.20
2023-01-22T22:59:23.645Z,13.50
2023-01-22T23:03:45.705Z,9.70
2023-01-22T23:14:35.766Z,8.20
2023-01-22T23:18:10.758Z,12.00
2023-01-22T23:22:15.549Z,7.50
2023-01-22T23:25:55.751Z,8.90
2023-01-22T23:33:52.288Z,7.40
2023-01-22T23:37:47.530Z,7.50
2023-01-22T23:41:40.566Z,8.90
2023-01-22T23:55:37.619Z,7.70
